Time;durP1;ratioP1;P1;durP2;ratioP2;P2;SDS_P1;SDS_P2;PMS_P1;PMS_P2;Temp;Humidity;BMP_temperature;BMP_pressure;BME280_temperature;BME280_humidity;BME280_pressure;Samples;Min_cycle;Max_cycle;Signal;HPM_P1;HPM_P2
2021/04/16 00:01:52;;;;;;;2.47;0.80;;;3.70;77.30;;;;;;5070965;28;20393;-82
2021/04/16 00:04:18;;;;;;;2.20;0.90;;;3.70;77.30;;;;;;5087393;28;20031;-81
2021/04/16 00:06:45;;;;;;;6.57;0.77;;;3.70;77.40;;;;;;5070413;28;20370;-82
2021/04/16 00:09:12;;;;;;;3.47;0.80;;;3.60;77.80;;;;;;5106613;28;20027;-82
2021/04/16 00:11:38;;;;;;;1.87;0.87;;;3.60;78.00;;;;;;5070117;28;20045;-82
2021/04/16 00:14:04;;;;;;;3.50;0.70;;;3.60;78.30;;;;;;5070742;28;20054;-82
2021/04/16 00:16:31;;;;;;;1.73;0.77;;;3.60;78.50;;;;;;5070533;28;20501;-82
2021/04/16 00:18:58;;;;;;;2.33;0.77;;;3.60;78.70;;;;;;5085503;28;20040;-82
2021/04/16 00:21:27;;;;;;;2.47;0.73;;;3.60;78.80;;;;;;5070184;28;20403;-82
2021/04/16 00:23:53;;;;;;;2.20;0.80;;;3.50;79.30;;;;;;5069737;28;20047;-82
2021/04/16 00:26:20;;;;;;;3.20;1.13;;;3.50;79.50;;;;;;5087099;28;20402;-82
2021/04/16 00:28:46;;;;;;;3.63;1.10;;;3.50;79.70;;;;;;5070657;28;20039;-82
2021/04/16 00:31:23;;;;;;;4.63;0.90;;;3.50;79.80;;;;;;5105387;28;20036;-82
2021/04/16 00:33:50;;;;;;;3.53;1.00;;;3.50;80.00;;;;;;5070976;28;20023;-82
2021/04/16 00:36:17;;;;;;;3.53;0.97;;;3.50;80.00;;;;;;5069458;28;20477;-82
2021/04/16 00:38:44;;;;;;;2.53;1.00;;;3.50;80.40;;;;;;5105491;28;20040;-82
2021/04/16 00:41:14;;;;;;;2.97;0.77;;;3.50;80.50;;;;;;5070842;28;20035;-82
2021/04/16 00:43:40;;;;;;;3.37;0.90;;;3.40;80.30;;;;;;5086656;28;20035;-82
2021/04/16 00:46:13;;;;;;;3.27;0.80;;;3.40;80.70;;;;;;5068735;28;20044;-81
2021/04/16 00:48:47;;;;;;;1.55;0.60;;;3.40;81.00;;;;;;5051344;28;20060;-82
2021/04/16 00:51:41;;;;;;;3.77;1.50;;;3.40;81.10;;;;;;5060468;28;20048;-82
2021/04/16 00:54:16;;;;;;;1.87;0.97;;;3.30;81.60;;;;;;5062504;28;20032;-81
2021/04/16 00:56:43;;;;;;;3.27;0.90;;;3.30;81.90;;;;;;5063311;28;20474;-81
2021/04/16 00:59:11;;;;;;;4.13;0.80;;;3.30;82.00;;;;;;5047303;28;20379;-81
2021/04/16 01:01:37;;;;;;;2.60;0.80;;;3.30;82.20;;;;;;5047091;28;20037;-82
2021/04/16 01:04:04;;;;;;;3.73;1.10;;;3.30;82.50;;;;;;5063661;28;20041;-83
2021/04/16 01:06:31;;;;;;;9.27;5.27;;;3.30;82.90;;;;;;5062095;28;20060;-81
2021/04/16 01:08:57;;;;;;;6.80;2.67;;;3.30;83.30;;;;;;5062479;28;20051;-81
2021/04/16 01:11:27;;;;;;;5.77;2.10;;;3.30;83.10;;;;;;5062132;28;20041;-80
2021/04/16 01:13:54;;;;;;;4.03;1.77;;;3.30;83.30;;;;;;5064218;28;20039;-81
2021/04/16 01:16:28;;;;;;;2.87;0.87;;;3.30;83.30;;;;;;5046357;28;21338;-81
2021/04/16 01:18:55;;;;;;;3.10;1.00;;;3.30;83.80;;;;;;5046883;28;20040;-81
2021/04/16 01:21:26;;;;;;;2.73;1.00;;;3.30;83.70;;;;;;5064508;28;20071;-80
2021/04/16 01:24:11;;;;;;;3.70;1.00;;;3.20;83.80;;;;;;5064143;28;20028;-81
2021/04/16 01:26:39;;;;;;;2.37;0.97;;;3.20;84.00;;;;;;5047481;28;20037;-81
2021/04/16 01:29:07;;;;;;;2.77;0.80;;;3.20;84.40;;;;;;5063630;28;20410;-80
2021/04/16 01:31:34;;;;;;;3.70;0.70;;;3.20;84.30;;;;;;5046116;28;20478;-80
2021/04/16 01:34:02;;;;;;;3.10;0.70;;;3.20;84.30;;;;;;5048219;28;20040;-80
2021/04/16 01:36:32;;;;;;;2.53;1.23;;;3.20;84.60;;;;;;5050405;28;20411;-81
2021/04/16 01:38:59;;;;;;;3.00;1.20;;;3.20;84.70;;;;;;5066212;28;20032;-80
2021/04/16 01:41:29;;;;;;;3.17;1.47;;;3.10;84.90;;;;;;5065317;28;20364;-80
2021/04/16 01:43:58;;;;;;;4.13;1.63;;;3.20;85.70;;;;;;5065625;28;20032;-81
2021/04/16 01:46:26;;;;;;;4.53;1.20;;;3.10;86.30;;;;;;5068064;28;20048;-80
2021/04/16 01:48:58;;;;;;;3.27;1.20;;;3.10;86.40;;;;;;5096902;28;20497;-80
2021/04/16 01:51:34;;;;;;;3.63;2.05;;;3.10;87.10;;;;;;5088160;27;20024;-80
2021/04/16 01:54:12;;;;;;;4.30;1.10;;;3.10;87.30;;;;;;5087947;28;20473;-80
2021/04/16 01:56:40;;;;;;;6.23;2.30;;;3.10;87.40;;;;;;5090794;28;20043;-80
2021/04/16 01:59:09;;;;;;;3.67;1.43;;;3.10;87.70;;;;;;5074217;28;20043;-80
2021/04/16 02:01:35;;;;;;;2.53;1.27;;;3.10;88.20;;;;;;5081432;28;20035;-80
2021/04/16 02:04:02;;;;;;;4.10;1.60;;;3.10;88.00;;;;;;5088164;28;20043;-80
2021/04/16 02:06:33;;;;;;;4.40;2.10;;;3.10;88.10;;;;;;5078441;28;20044;-80
2021/04/16 02:09:01;;;;;;;2.20;1.10;;;3.10;88.40;;;;;;5070235;28;20038;-80
2021/04/16 02:11:28;;;;;;;4.83;1.50;;;3.10;88.90;;;;;;5073161;28;20047;-80
2021/04/16 02:13:54;;;;;;;5.13;1.40;;;3.00;88.50;;;;;;5090480;28;20114;-80
2021/04/16 02:16:20;;;;;;;5.00;1.33;;;3.00;88.70;;;;;;5041980;28;20044;-81
2021/04/16 02:18:47;;;;;;;2.37;1.00;;;3.00;88.60;;;;;;5108601;28;20047;-80
2021/04/16 02:21:13;;;;;;;2.57;1.10;;;2.90;88.60;;;;;;5043274;28;20043;-80
2021/04/16 02:23:40;;;;;;;4.70;1.20;;;2.90;88.60;;;;;;5089883;28;20043;-80
2021/04/16 02:26:07;;;;;;;3.20;1.00;;;2.80;88.90;;;;;;5073122;28;20039;-80
2021/04/16 02:28:33;;;;;;;2.37;1.23;;;2.80;88.90;;;;;;5073353;28;20039;-80
2021/04/16 02:31:00;;;;;;;3.70;1.47;;;2.80;88.80;;;;;;5073086;28;20036;-81
2021/04/16 02:33:26;;;;;;;4.70;1.40;;;2.80;89.00;;;;;;5073289;28;20039;-81
2021/04/16 02:35:52;;;;;;;4.93;1.43;;;2.80;89.10;;;;;;5073993;28;20039;-81
2021/04/16 02:38:19;;;;;;;4.60;1.10;;;2.80;89.40;;;;;;5108016;28;20058;-81
2021/04/16 02:40:45;;;;;;;4.43;1.57;;;2.80;89.40;;;;;;5088906;28;20047;-80
2021/04/16 02:43:12;;;;;;;5.50;2.10;;;2.70;89.50;;;;;;5073125;28;20039;-80
2021/04/16 02:45:38;;;;;;;3.00;1.37;;;2.80;89.90;;;;;;5089023;28;20047;-81
2021/04/16 02:48:05;;;;;;;4.50;1.50;;;2.70;89.90;;;;;;5072118;28;20052;-80
2021/04/16 02:50:32;;;;;;;4.03;0.93;;;2.80;89.90;;;;;;5068522;28;20049;-81
2021/04/16 02:52:58;;;;;;;6.10;1.63;;;2.80;89.80;;;;;;5039120;28;20043;-80
2021/04/16 02:55:25;;;;;;;3.43;0.93;;;2.80;90.00;;;;;;5087933;28;20520;-80
2021/04/16 02:57:51;;;;;;;5.70;1.70;;;2.70;90.00;;;;;;5087602;28;20581;-80
2021/04/16 03:00:27;;;;;;;3.83;1.10;;;2.80;90.20;;;;;;5069665;28;20040;-81
2021/04/16 03:02:56;;;;;;;6.37;1.70;;;2.70;90.20;;;;;;5073250;28;20044;-80
2021/04/16 03:05:22;;;;;;;5.57;1.77;;;2.70;90.60;;;;;;5070481;28;20035;-81
2021/04/16 03:07:52;;;;;;;5.87;1.60;;;2.70;90.50;;;;;;5069037;28;20039;-81
2021/04/16 03:10:23;;;;;;;4.13;2.03;;;2.70;90.60;;;;;;5068265;28;21267;-81
2021/04/16 03:12:50;;;;;;;4.80;1.50;;;2.70;90.70;;;;;;5102538;28;20500;-81
2021/04/16 03:15:17;;;;;;;6.73;2.00;;;2.70;90.80;;;;;;5085276;28;20032;-80
2021/04/16 03:17:44;;;;;;;4.90;1.70;;;2.70;90.90;;;;;;5087544;28;20501;-80
2021/04/16 03:20:12;;;;;;;5.93;1.70;;;2.70;91.00;;;;;;5104466;28;20039;-80
2021/04/16 03:22:38;;;;;;;5.30;1.33;;;2.70;91.00;;;;;;5089148;28;20039;-81
2021/04/16 03:25:07;;;;;;;3.80;1.57;;;2.70;91.10;;;;;;5070610;28;20050;-81
2021/04/16 03:27:33;;;;;;;2.73;1.10;;;2.70;91.20;;;;;;5088941;28;20402;-80
2021/04/16 03:30:00;;;;;;;6.10;2.07;;;2.70;91.10;;;;;;5087451;28;20051;-80
2021/04/16 03:32:28;;;;;;;7.13;2.13;;;2.70;91.50;;;;;;5072557;28;20040;-81
2021/04/16 03:34:55;;;;;;;5.13;1.87;;;2.70;91.40;;;;;;5070535;28;20035;-80
2021/04/16 03:37:22;;;;;;;4.37;1.77;;;2.70;91.50;;;;;;5106576;28;20035;-81
2021/04/16 03:39:49;;;;;;;8.17;2.20;;;2.70;91.50;;;;;;5071749;28;20036;-81
2021/04/16 03:42:15;;;;;;;4.53;1.50;;;2.70;91.50;;;;;;5073574;28;20047;-81
2021/04/16 03:44:42;;;;;;;8.17;2.33;;;2.60;91.50;;;;;;5055615;28;20040;-80
2021/04/16 03:47:08;;;;;;;8.07;2.37;;;2.60;91.60;;;;;;5054308;28;20726;-80
2021/04/16 03:49:35;;;;;;;5.20;2.00;;;2.60;91.80;;;;;;5055013;28;20044;-80
2021/04/16 03:52:03;;;;;;;6.10;1.63;;;2.60;91.90;;;;;;5086427;28;20043;-80
2021/04/16 03:54:30;;;;;;;5.10;1.30;;;2.60;91.90;;;;;;5106822;28;20046;-80
2021/04/16 03:56:57;;;;;;;4.80;1.63;;;2.60;91.90;;;;;;5070562;28;20039;-81
2021/04/16 03:59:24;;;;;;;6.00;2.40;;;2.60;91.90;;;;;;5088340;28;20520;-81
2021/04/16 04:01:52;;;;;;;5.13;1.60;;;2.60;92.20;;;;;;5088464;28;20051;-80
2021/04/16 04:04:20;;;;;;;7.27;1.73;;;2.60;92.10;;;;;;5105476;28;20397;-80
2021/04/16 04:06:48;;;;;;;4.30;2.00;;;2.60;92.10;;;;;;5071386;28;20031;-80
2021/04/16 04:09:15;;;;;;;6.73;1.70;;;2.60;92.30;;;;;;5106393;28;20363;-80
2021/04/16 04:11:42;;;;;;;4.73;1.63;;;2.60;92.20;;;;;;5088055;28;20036;-81
2021/04/16 04:14:09;;;;;;;4.50;1.90;;;2.60;92.20;;;;;;5077118;28;20035;-81
2021/04/16 04:16:56;;;;;;;4.40;1.83;;;2.60;92.30;;;;;;5052483;28;20417;-81
2021/04/16 04:19:25;;;;;;;5.97;1.97;;;2.60;92.30;;;;;;5070421;28;20046;-80
2021/04/16 04:21:53;;;;;;;4.80;1.80;;;2.60;92.40;;;;;;5070914;28;20035;-80
2021/04/16 04:24:20;;;;;;;6.40;2.60;;;2.60;92.50;;;;;;5088298;28;20043;-80
2021/04/16 04:26:46;;;;;;;8.77;3.00;;;2.60;92.60;;;;;;5069810;28;20056;-80
2021/04/16 04:29:16;;;;;;;5.00;2.40;;;2.70;92.70;;;;;;5071177;28;20044;-80
2021/04/16 04:31:49;;;;;;;8.37;3.00;;;2.70;92.70;;;;;;5070950;28;20043;-80
2021/04/16 04:34:24;;;;;;;5.43;2.13;;;2.80;92.90;;;;;;5071824;28;20160;-80
2021/04/16 04:36:55;;;;;;;8.30;2.33;;;2.90;92.70;;;;;;5087720;28;20038;-80
2021/04/16 04:39:24;;;;;;;5.40;2.20;;;3.00;92.70;;;;;;5070741;28;20031;-81
2021/04/16 04:41:50;;;;;;;6.03;3.00;;;3.00;92.70;;;;;;5087624;28;20036;-81
2021/04/16 04:44:17;;;;;;;6.63;3.17;;;3.10;92.70;;;;;;5086053;28;20031;-81
2021/04/16 04:46:44;;;;;;;6.07;2.93;;;3.20;92.60;;;;;;5068604;28;20394;-81
2021/04/16 04:49:10;;;;;;;6.13;2.47;;;3.20;92.50;;;;;;5087103;28;20044;-81
2021/04/16 04:51:39;;;;;;;5.13;2.97;;;3.20;92.40;;;;;;5105849;28;20051;-80
2021/04/16 04:54:07;;;;;;;5.07;2.37;;;3.30;92.40;;;;;;5086417;28;20572;-80
2021/04/16 04:56:35;;;;;;;8.10;3.50;;;3.30;92.40;;;;;;5104417;28;20486;-80
2021/04/16 04:59:02;;;;;;;5.80;3.50;;;3.30;92.40;;;;;;5103732;28;20035;-80
2021/04/16 05:01:28;;;;;;;5.97;2.37;;;3.30;92.40;;;;;;5070760;28;20050;-80
2021/04/16 05:03:55;;;;;;;10.57;3.50;;;3.30;92.50;;;;;;5069025;28;20483;-80
2021/04/16 05:06:21;;;;;;;10.10;3.40;;;3.20;92.50;;;;;;5070298;28;20051;-80
2021/04/16 05:08:48;;;;;;;4.97;3.23;;;3.20;92.50;;;;;;5071645;28;20522;-80
2021/04/16 05:11:14;;;;;;;8.70;3.37;;;3.20;92.60;;;;;;5074919;28;20491;-81
2021/04/16 05:13:41;;;;;;;7.90;2.53;;;3.20;92.90;;;;;;5055535;28;20031;-85
2021/04/16 05:16:10;;;;;;;9.83;3.27;;;3.20;92.70;;;;;;5091082;28;20043;-83
2021/04/16 05:18:37;;;;;;;8.00;2.80;;;3.20;92.80;;;;;;5073722;28;20047;-82
2021/04/16 05:21:05;;;;;;;8.20;2.70;;;3.20;92.70;;;;;;5090912;28;20394;-81
2021/04/16 05:23:32;;;;;;;7.67;3.63;;;3.30;92.70;;;;;;5074487;28;20031;-81
2021/04/16 05:25:58;;;;;;;13.77;6.83;;;3.30;92.60;;;;;;5073638;28;20043;-81
2021/04/16 05:28:24;;;;;;;9.37;4.47;;;3.30;92.60;;;;;;5071469;28;20143;-83
2021/04/16 05:30:51;;;;;;;8.83;3.13;;;3.40;92.70;;;;;;5070731;28;20039;-82
2021/04/16 05:33:17;;;;;;;7.23;3.63;;;3.50;92.70;;;;;;5090051;28;20032;-80
2021/04/16 05:35:44;;;;;;;9.47;3.80;;;3.50;92.70;;;;;;5045099;28;20051;-81
2021/04/16 05:38:10;;;;;;;7.67;3.30;;;3.60;92.60;;;;;;5056275;28;20043;-80
2021/04/16 05:40:37;;;;;;;6.47;2.90;;;3.60;92.60;;;;;;5073761;28;20070;-81
2021/04/16 05:43:03;;;;;;;7.93;2.97;;;3.70;92.50;;;;;;5090850;28;20039;-81
2021/04/16 05:45:30;;;;;;;7.17;3.10;;;3.70;92.40;;;;;;5074312;28;20058;-80
2021/04/16 05:47:56;;;;;;;9.30;2.83;;;3.80;92.40;;;;;;5056537;28;20067;-81
2021/04/16 05:50:22;;;;;;;6.57;2.70;;;3.80;92.30;;;;;;5107601;28;21331;-81
2021/04/16 05:52:49;;;;;;;7.27;2.93;;;3.80;92.30;;;;;;5057811;28;20032;-81
2021/04/16 05:55:16;;;;;;;11.33;3.93;;;3.90;92.30;;;;;;5073944;28;20040;-80
2021/04/16 05:57:42;;;;;;;8.37;2.53;;;4.00;92.30;;;;;;5039213;28;20402;-81
2021/04/16 06:00:10;;;;;;;8.57;2.90;;;4.20;92.20;;;;;;5089409;28;20032;-80
2021/04/16 06:02:39;;;;;;;10.43;3.27;;;4.30;92.00;;;;;;5074234;28;20055;-81
2021/04/16 06:05:11;;;;;;;13.17;3.50;;;4.50;91.80;;;;;;5086820;28;20050;-81
2021/04/16 06:07:38;;;;;;;7.93;3.53;;;4.60;91.60;;;;;;5087845;28;20413;-81
2021/04/16 06:10:08;;;;;;;6.57;2.90;;;4.60;91.70;;;;;;5072201;28;20054;-81
2021/04/16 06:12:37;;;;;;;8.83;3.33;;;4.60;91.40;;;;;;5105908;28;20036;-81
2021/04/16 06:15:11;;;;;;;8.03;3.00;;;4.60;91.30;;;;;;5072553;28;20047;-81
2021/04/16 06:17:38;;;;;;;10.63;3.17;;;4.50;91.30;;;;;;5070549;28;20599;-81
2021/04/16 06:20:07;;;;;;;7.57;2.80;;;4.40;91.30;;;;;;5069974;28;20035;-81
2021/04/16 06:22:34;;;;;;;9.43;3.00;;;4.40;91.30;;;;;;5105183;28;20048;-80
2021/04/16 06:25:00;;;;;;;6.90;2.50;;;4.40;91.40;;;;;;5106923;28;20040;-80
2021/04/16 06:27:26;;;;;;;4.63;1.80;;;4.40;91.40;;;;;;5073452;28;20050;-81
2021/04/16 06:29:53;;;;;;;11.57;3.23;;;4.50;91.40;;;;;;5106557;28;20054;-81
2021/04/16 06:32:21;;;;;;;10.63;4.00;;;4.50;91.30;;;;;;5072731;28;20035;-81
2021/04/16 06:34:49;;;;;;;8.77;4.00;;;4.60;91.30;;;;;;5075384;28;20054;-81
2021/04/16 06:37:15;;;;;;;8.83;2.97;;;4.60;91.20;;;;;;5089009;28;20058;-81
2021/04/16 06:39:42;;;;;;;8.63;3.70;;;4.60;91.20;;;;;;5056803;28;20035;-81
2021/04/16 06:42:20;;;;;;;7.57;3.17;;;4.60;91.20;;;;;;5089644;28;20047;-81
2021/04/16 06:44:48;;;;;;;8.97;3.73;;;4.60;91.20;;;;;;5105782;28;20031;-80
2021/04/16 06:47:23;;;;;;;7.63;2.90;;;4.60;91.60;;;;;;5089174;28;20469;-82
2021/04/16 06:49:49;;;;;;;7.83;3.43;;;4.70;91.40;;;;;;5070567;28;20043;-83
2021/04/16 06:52:25;;;;;;;8.47;3.10;;;4.70;91.30;;;;;;5057070;28;20059;-81
2021/04/16 06:55:12;;;;;;;10.87;3.90;;;4.90;91.50;;;;;;5087901;28;20118;-81
2021/04/16 06:58:08;;;;;;;6.40;3.00;;;5.50;91.30;;;;;;5088450;28;20059;-80
2021/04/16 07:00:53;;;;;;;11.50;3.37;;;6.00;90.60;;;;;;5075932;28;20056;-81
2021/04/16 07:03:25;;;;;;;8.70;4.00;;;6.40;90.00;;;;;;5071253;28;20032;-81
2021/04/16 07:06:07;;;;;;;6.78;2.60;;;6.60;88.60;;;;;;5073625;28;20513;-81
2021/04/16 07:08:44;;;;;;;8.90;2.80;;;6.90;87.90;;;;;;5071483;28;20036;-81
2021/04/16 07:11:24;;;;;;;7.00;1.97;;;7.00;86.50;;;;;;5072520;28;20046;-82
2021/04/16 07:13:51;;;;;;;5.63;2.33;;;7.30;85.80;;;;;;5080794;28;20039;-82
2021/04/16 07:16:21;;;;;;;5.37;1.80;;;7.50;84.40;;;;;;5088339;28;20051;-82
2021/04/16 07:18:53;;;;;;;7.18;2.30;;;7.70;84.20;;;;;;5087920;28;20042;-82
2021/04/16 07:21:21;;;;;;;9.07;2.33;;;7.90;83.50;;;;;;5055396;28;20039;-81
2021/04/16 07:23:54;;;;;;;8.43;1.88;;;8.10;81.40;;;;;;5072685;28;20047;-81
2021/04/16 07:26:35;;;;;;;2.92;1.40;;;8.20;80.20;;;;;;5071612;28;20489;-81
2021/04/16 07:29:05;;;;;;;6.45;1.75;;;8.40;79.60;;;;;;5087679;28;20039;-82
2021/04/16 07:31:47;;;;;;;3.15;1.60;;;8.50;78.40;;;;;;5071041;28;20035;-82
2021/04/16 07:34:36;;;;;;;4.50;1.42;;;8.70;77.70;;;;;;5069719;28;20765;-82
2021/04/16 07:37:05;;;;;;;4.68;1.60;;;8.90;76.90;;;;;;5070921;28;20039;-81
2021/04/16 07:39:36;;;;;;;3.65;1.35;;;9.10;76.00;;;;;;5085988;28;20052;-82
2021/04/16 07:42:09;;;;;;;5.10;1.65;;;9.30;74.50;;;;;;5070782;28;20044;-82
2021/04/16 07:44:39;;;;;;;3.83;1.63;;;9.40;74.00;;;;;;5087443;28;20595;-82
2021/04/16 07:47:12;;;;;;;2.97;1.55;;;9.60;73.40;;;;;;5073925;28;20039;-82
2021/04/16 07:49:52;;;;;;;4.63;1.20;;;9.70;71.90;;;;;;5068030;28;20047;-88
2021/04/16 07:52:32;;;;;;;2.50;1.20;;;9.90;71.00;;;;;;5069997;28;20039;-84
2021/04/16 07:55:19;;;;;;;7.28;1.90;;;10.00;70.50;;;;;;5055150;28;20036;-83
2021/04/16 07:58:21;;;;;;;4.63;1.88;;;10.20;68.20;;;;;;5069186;28;20042;-83
2021/04/16 08:00:50;;;;;;;5.10;1.25;;;10.30;66.00;;;;;;5085559;28;20498;-80
2021/04/16 08:03:20;;;;;;;3.22;1.13;;;10.40;62.80;;;;;;5087934;28;20035;-82
2021/04/16 08:05:55;;;;;;;3.80;1.10;;;10.40;64.20;;;;;;5085101;28;20386;-81
2021/04/16 08:08:30;;;;;;;3.08;1.00;;;10.50;60.70;;;;;;5107259;28;20038;-81
2021/04/16 08:10:59;;;;;;;3.90;1.20;;;10.60;60.00;;;;;;5070575;28;20047;-82
2021/04/16 08:13:51;;;;;;;5.18;1.20;;;10.70;60.10;;;;;;5065270;28;20055;-82
2021/04/16 08:16:19;;;;;;;2.08;0.75;;;10.70;60.10;;;;;;5084463;28;20032;-81
2021/04/16 08:19:07;;;;;;;3.72;0.93;;;10.80;59.80;;;;;;5058767;28;20051;-83
2021/04/16 08:21:38;;;;;;;3.90;1.17;;;10.90;57.70;;;;;;5083531;28;20043;-80
2021/04/16 08:24:34;;;;;;;8.38;0.85;;;10.90;58.30;;;;;;5070860;28;20039;-83
2021/04/16 08:27:08;;;;;;;2.13;0.70;;;11.00;56.80;;;;;;5083904;28;20039;-83
2021/04/16 08:29:46;;;;;;;3.70;1.08;;;11.10;55.00;;;;;;5086846;28;20065;-83
2021/04/16 08:32:24;;;;;;;2.35;0.93;;;11.20;54.20;;;;;;5087696;28;20027;-83
2021/04/16 08:35:20;;;;;;;2.55;0.85;;;11.20;55.30;;;;;;5086123;28;20031;-81
2021/04/16 08:37:57;;;;;;;2.42;0.88;;;11.40;54.30;;;;;;5031669;28;20040;-82
2021/04/16 08:40:29;;;;;;;2.30;0.60;;;11.50;52.20;;;;;;5070517;28;20047;-81
2021/04/16 08:42:58;;;;;;;2.55;1.17;;;11.60;52.00;;;;;;5071135;28;20035;-81
2021/04/16 08:45:27;;;;;;;2.45;0.40;;;11.70;51.00;;;;;;5086092;28;20039;-81
2021/04/16 08:47:56;;;;;;;1.90;0.70;;;11.80;50.40;;;;;;5062741;28;20055;-81
2021/04/16 08:50:35;;;;;;;2.55;0.90;;;11.80;49.50;;;;;;5068295;28;20097;-83
2021/04/16 08:53:03;;;;;;;2.40;0.80;;;11.90;50.10;;;;;;5068723;28;20039;-81
2021/04/16 08:55:36;;;;;;;2.42;0.70;;;12.00;49.60;;;;;;5081907;28;20036;-81
2021/04/16 08:58:09;;;;;;;1.92;0.73;;;12.10;49.60;;;;;;5068902;28;20816;-81
2021/04/16 09:00:53;;;;;;;4.95;0.70;;;12.20;48.10;;;;;;5068173;28;20043;-80
2021/04/16 09:03:38;;;;;;;3.55;0.63;;;12.20;48.00;;;;;;5072554;28;20044;-84
2021/04/16 09:06:07;;;;;;;3.58;0.70;;;12.30;48.50;;;;;;5053919;28;20042;-82
2021/04/16 09:08:38;;;;;;;1.27;0.40;;;12.30;48.40;;;;;;5069798;28;20517;-84
2021/04/16 09:11:08;;;;;;;3.47;0.70;;;12.40;49.10;;;;;;5086250;28;20512;-83
2021/04/16 09:13:40;;;;;;;1.73;0.50;;;12.50;48.70;;;;;;5086812;28;20042;-84
2021/04/16 09:16:16;;;;;;;;;;;12.60;46.60;;;;;;5085309;28;20490;-84
2021/04/16 09:18:43;;;;;;;2.60;0.80;;;12.60;47.30;;;;;;5103753;28;19911;-84
2021/04/16 09:21:11;;;;;;;3.13;0.80;;;12.70;47.80;;;;;;5088984;28;20063;-83
2021/04/16 09:23:38;;;;;;;1.60;0.50;;;12.80;48.20;;;;;;5083229;28;20690;-83
2021/04/16 09:26:06;;;;;;;1.83;0.35;;;12.80;45.40;;;;;;5087656;28;20039;-84
2021/04/16 09:28:43;;;;;;;3.33;0.70;;;12.80;44.50;;;;;;5104793;28;20040;-84
2021/04/16 09:31:21;;;;;;;1.40;0.50;;;12.70;44.30;;;;;;5084845;28;20044;-84
2021/04/16 09:34:04;;;;;;;7.30;0.77;;;12.60;45.50;;;;;;5084306;28;20486;-84
2021/04/16 09:36:30;;;;;;;1.50;0.40;;;12.70;46.10;;;;;;5105708;28;20130;-83
2021/04/16 09:39:12;;;;;;;2.38;0.50;;;12.80;45.50;;;;;;5072898;28;20040;-84
2021/04/16 09:41:44;;;;;;;2.80;0.60;;;12.90;45.50;;;;;;5069460;28;20445;-83
2021/04/16 09:44:29;;;;;;;1.00;0.40;;;13.00;45.40;;;;;;5087712;28;20030;-84
2021/04/16 09:47:03;;;;;;;0.95;0.40;;;13.10;44.80;;;;;;5086089;28;20046;-83
2021/04/16 09:49:31;;;;;;;4.57;0.70;;;13.30;43.00;;;;;;5087345;28;20040;-83
2021/04/16 09:52:08;;;;;;;1.90;0.47;;;13.30;43.60;;;;;;5086664;28;20040;-84
2021/04/16 09:54:38;;;;;;;1.90;0.47;;;13.30;43.40;;;;;;5088238;28;20031;-83
2021/04/16 09:57:08;;;;;;;0.80;0.30;;;13.30;40.90;;;;;;5073750;28;20035;-84
2021/04/16 09:59:43;;;;;;;1.42;0.40;;;13.20;40.80;;;;;;5090288;28;20035;-84
2021/04/16 10:02:13;;;;;;;1.83;0.60;;;13.10;42.50;;;;;;5073802;28;20032;-85
2021/04/16 10:04:51;;;;;;;2.53;0.73;;;13.20;42.80;;;;;;5086881;28;20040;-84
2021/04/16 10:07:22;;;;;;;1.58;0.40;;;13.30;42.00;;;;;;5086363;28;20477;-85
2021/04/16 10:09:49;;;;;;;2.25;0.70;;;13.30;41.80;;;;;;5067833;28;20044;-85
2021/04/16 10:12:28;;;;;;;5.90;0.70;;;13.40;42.90;;;;;;5056372;28;20579;-85
2021/04/16 10:14:55;;;;;;;2.35;0.50;;;13.60;43.30;;;;;;5086350;28;20384;-84
2021/04/16 10:17:25;;;;;;;2.15;0.50;;;13.70;43.50;;;;;;5089631;28;20052;-85
2021/04/16 10:20:17;;;;;;;3.53;0.82;;;13.70;42.70;;;;;;5087345;28;20040;-85
2021/04/16 10:22:44;;;;;;;3.15;0.52;;;13.80;43.00;;;;;;5086513;28;20043;-85
2021/04/16 10:34:42;;;;;;;4.75;0.70;;;14.40;43.50;;;;;;5071428;28;20040;-87
2021/04/16 10:40:03;;;;;;;2.33;0.52;;;14.80;41.80;;;;;;5089257;28;20046;-86
2021/04/16 12:38:34;;;;;;;1.92;0.47;;;22.60;26.10;;;;;;5103460;28;20039;-85
2021/04/16 12:40:59;;;;;;;1.08;0.40;;;22.70;24.90;;;;;;5073384;28;20805;-85
2021/04/16 12:43:26;;;;;;;2.00;0.40;;;22.60;24.70;;;;;;5068331;28;20044;-85
2021/04/16 12:45:55;;;;;;;1.67;0.50;;;22.70;24.80;;;;;;5101922;28;20032;-85
2021/04/16 12:48:23;;;;;;;1.98;0.40;;;23.00;25.80;;;;;;5085443;28;20040;-87
2021/04/16 12:50:50;;;;;;;1.40;0.55;;;23.50;26.00;;;;;;5070267;28;20035;-86
2021/04/16 12:53:17;;;;;;;1.42;0.40;;;24.00;25.10;;;;;;5106310;28;20046;-85
2021/04/16 12:55:44;;;;;;;1.08;0.40;;;23.90;24.10;;;;;;5086232;28;20044;-84
2021/04/16 12:58:20;;;;;;;3.00;0.60;;;24.00;24.20;;;;;;5085159;28;20043;-84
2021/04/16 13:00:48;;;;;;;1.20;0.73;;;24.30;23.90;;;;;;5085178;28;20478;-85
2021/04/16 13:03:19;;;;;;;1.90;0.50;;;24.00;24.00;;;;;;5073052;28;20031;-85
2021/04/16 13:05:48;;;;;;;1.52;0.50;;;23.80;24.40;;;;;;5106008;28;20397;-84
2021/04/16 13:08:15;;;;;;;1.33;0.63;;;23.90;24.90;;;;;;5089229;28;20036;-84
2021/04/16 13:10:41;;;;;;;1.48;0.60;;;24.30;24.20;;;;;;5105675;28;20043;-84
2021/04/16 13:13:08;;;;;;;1.40;0.60;;;24.60;24.30;;;;;;5106420;28;20051;-84
2021/04/16 13:15:34;;;;;;;1.40;0.43;;;24.70;23.70;;;;;;5071800;28;20040;-83
2021/04/16 13:18:06;;;;;;;1.58;0.50;;;24.60;24.20;;;;;;5087403;28;20039;-84
2021/04/16 13:20:33;;;;;;;2.42;0.60;;;24.50;24.10;;;;;;5102383;28;20036;-84
2021/04/16 13:22:59;;;;;;;2.95;0.60;;;24.60;24.10;;;;;;5087858;28;20047;-83
2021/04/16 13:25:29;;;;;;;1.50;0.50;;;24.50;24.20;;;;;;5070616;28;20485;-85
2021/04/16 13:27:55;;;;;;;3.10;1.80;;;24.20;24.50;;;;;;5086631;28;20036;-85
2021/04/16 13:30:25;;;;;;;1.33;0.80;;;23.50;24.50;;;;;;5089236;28;20052;-85
2021/04/16 13:32:56;;;;;;;2.20;0.75;;;22.30;25.30;;;;;;5077108;28;20027;-85
2021/04/16 13:35:32;;;;;;;1.20;0.70;;;21.20;26.80;;;;;;5090370;28;20046;-80
2021/04/16 13:38:01;;;;;;;3.17;0.95;;;21.10;27.00;;;;;;5088940;28;20046;-80
2021/04/16 13:40:28;;;;;;;4.45;1.15;;;21.30;27.00;;;;;;5107370;28;20054;-81
2021/04/16 13:42:54;;;;;;;1.98;0.50;;;21.70;26.90;;;;;;5109413;28;20410;-82
2021/04/16 13:45:21;;;;;;;2.00;0.90;;;22.10;26.80;;;;;;5107430;28;20047;-82
2021/04/16 13:47:47;;;;;;;1.45;0.52;;;22.70;26.50;;;;;;5108666;28;20047;-84
2021/04/16 13:50:17;;;;;;;3.92;2.47;;;23.20;26.00;;;;;;5073252;28;20047;-84
2021/04/16 13:52:45;;;;;;;2.67;2.03;;;23.60;25.80;;;;;;5088919;28;20032;-80
2021/04/16 13:55:14;;;;;;;4.30;0.80;;;24.20;25.90;;;;;;5089424;28;20588;-79
2021/04/16 13:57:41;;;;;;;1.85;0.68;;;24.80;25.30;;;;;;5071547;28;20035;-79
2021/04/16 14:00:11;;;;;;;1.80;0.80;;;25.30;25.60;;;;;;5106132;28;20027;-79
2021/04/16 14:02:48;;;;;;;1.00;0.60;;;25.40;24.20;;;;;;5072638;28;20505;-79
2021/04/16 14:05:22;;;;;;;1.58;0.50;;;25.30;24.40;;;;;;5086604;28;20035;-78
2021/04/16 14:07:50;;;;;;;2.35;0.50;;;25.40;24.10;;;;;;5106566;28;20382;-79
2021/04/16 14:10:23;;;;;;;1.23;0.60;;;25.60;23.80;;;;;;5106087;28;20031;-79
2021/04/16 14:12:50;;;;;;;3.45;0.70;;;25.60;23.40;;;;;;5071388;28;20501;-78
2021/04/16 14:15:18;;;;;;;1.50;0.60;;;25.30;23.60;;;;;;5106197;28;20048;-79
2021/04/16 14:17:54;;;;;;;2.42;0.65;;;25.00;24.10;;;;;;5106209;28;20040;-79
2021/04/16 14:20:39;;;;;;;2.22;0.57;;;24.80;23.70;;;;;;5070688;28;20043;-79
2021/04/16 14:23:11;;;;;;;1.17;0.50;;;25.00;24.70;;;;;;5070288;28;20054;-79
2021/04/16 14:25:40;;;;;;;2.38;0.60;;;25.40;24.40;;;;;;5088347;28;20572;-79
2021/04/16 14:28:10;;;;;;;1.75;0.50;;;25.60;24.60;;;;;;5105850;28;20043;-79
2021/04/16 14:30:38;;;;;;;1.88;0.50;;;25.80;24.50;;;;;;5105105;28;20062;-79
2021/04/16 14:33:09;;;;;;;1.58;0.60;;;26.00;24.40;;;;;;5084441;28;20048;-80
2021/04/16 14:35:37;;;;;;;3.70;0.63;;;25.90;24.00;;;;;;5085862;28;20051;-78
2021/04/16 14:38:04;;;;;;;2.33;0.50;;;25.50;24.00;;;;;;5091554;28;20031;-80
2021/04/16 14:40:31;;;;;;;2.20;0.60;;;25.00;24.20;;;;;;5086961;28;20047;-80
2021/04/16 14:42:58;;;;;;;2.45;0.60;;;24.20;24.80;;;;;;5087928;28;20028;-80
2021/04/16 14:45:28;;;;;;;3.25;0.70;;;22.90;25.70;;;;;;5106343;28;20035;-80
2021/04/16 14:47:56;;;;;;;1.85;0.93;;;21.60;27.10;;;;;;5054747;28;20058;-80
2021/04/16 14:50:25;;;;;;;2.17;1.00;;;20.50;28.10;;;;;;5070034;28;20059;-80
2021/04/16 14:52:54;;;;;;;2.90;1.30;;;19.60;29.30;;;;;;5101827;27;20604;-79
2021/04/16 14:55:31;;;;;;;3.85;0.98;;;18.90;29.70;;;;;;5086898;28;20024;-79
2021/04/16 14:57:59;;;;;;;2.78;0.50;;;18.30;30.30;;;;;;5074827;28;20040;-79
2021/04/16 15:00:29;;;;;;;1.85;0.60;;;17.70;31.30;;;;;;5087137;28;20035;-80
2021/04/16 15:02:56;;;;;;;1.45;0.60;;;17.10;32.20;;;;;;5087781;28;20035;-79
2021/04/16 15:05:24;;;;;;;2.15;0.70;;;16.70;32.70;;;;;;5103235;28;20409;-81
2021/04/16 15:08:10;;;;;;;1.73;0.70;;;16.40;32.90;;;;;;5107493;28;20785;-78
2021/04/16 15:10:47;;;;;;;8.07;4.13;;;16.20;33.40;;;;;;5085837;28;20047;-80
2021/04/16 15:13:26;;;;;;;6.07;3.33;;;16.00;34.00;;;;;;5089129;28;20405;-80
2021/04/16 15:15:57;;;;;;;4.40;2.65;;;15.70;34.30;;;;;;5104945;28;20035;-78
2021/04/16 15:18:24;;;;;;;3.42;0.70;;;15.50;34.60;;;;;;5105070;28;20047;-77